sensor_id;sensor_type;location;lat;lon;timestamp;temperature;humidity
4615;DHT22;2320;51.362;6.946;2023-04-01T00:01:54;10.40;99.90
4615;DHT22;2320;51.362;6.946;2023-04-01T00:04:19;10.40;99.90
4615;DHT22;2320;51.362;6.946;2023-04-01T00:06:46;10.40;99.90
4615;DHT22;2320;51.362;6.946;2023-04-01T00:09:12;10.40;99.90
4615;DHT22;2320;51.362;6.946;2023-04-01T00:11:38;10.40;99.90
4615;DHT22;2320;51.362;6.946;2023-04-01T00:14:03;10.30;99.90
4615;DHT22;2320;51.362;6.946;2023-04-01T00:16:29;10.40;99.90
4615;DHT22;2320;51.362;6.946;2023-04-01T00:18:55;10.30;99.90
4615;DHT22;2320;51.362;6.946;2023-04-01T00:21:21;10.30;99.90
4615;DHT22;2320;51.362;6.946;2023-04-01T00:23:47;10.30;99.90
4615;DHT22;2320;51.362;6.946;2023-04-01T00:26:13;10.30;99.90
4615;DHT22;2320;51.362;6.946;2023-04-01T00:28:40;10.30;99.90
4615;DHT22;2320;51.362;6.946;2023-04-01T00:31:06;10.30;99.90
4615;DHT22;2320;51.362;6.946;2023-04-01T00:33:32;10.30;99.90
4615;DHT22;2320;51.362;6.946;2023-04-01T00:36:05;10.30;99.90
4615;DHT22;2320;51.362;6.946;2023-04-01T00:38:30;10.30;99.90
4615;DHT22;2320;51.362;6.946;2023-04-01T00:40:56;10.30;99.90
4615;DHT22;2320;51.362;6.946;2023-04-01T00:43:23;10.40;99.90
4615;DHT22;2320;51.362;6.946;2023-04-01T00:45:48;10.40;99.90
4615;DHT22;2320;51.362;6.946;2023-04-01T00:48:16;10.40;99.90
4615;DHT22;2320;51.362;6.946;2023-04-01T00:50:44;10.30;99.90
4615;DHT22;2320;51.362;6.946;2023-04-01T00:53:11;10.30;99.90
4615;DHT22;2320;51.362;6.946;2023-04-01T00:55:38;10.30;99.90
4615;DHT22;2320;51.362;6.946;2023-04-01T00:58:05;10.30;99.90
4615;DHT22;2320;51.362;6.946;2023-04-01T01:00:33;10.20;99.90
4615;DHT22;2320;51.362;6.946;2023-04-01T01:02:59;10.30;99.90
4615;DHT22;2320;51.362;6.946;2023-04-01T01:08:35;10.30;99.90
4615;DHT22;2320;51.362;6.946;2023-04-01T01:11:05;10.30;99.90
4615;DHT22;2320;51.362;6.946;2023-04-01T01:13:36;10.30;99.90
4615;DHT22;2320;51.362;6.946;2023-04-01T01:16:10;10.30;99.90
4615;DHT22;2320;51.362;6.946;2023-04-01T01:18:41;10.30;99.90
4615;DHT22;2320;51.362;6.946;2023-04-01T01:23:56;10.30;99.90
4615;DHT22;2320;51.362;6.946;2023-04-01T01:29:08;10.20;99.90
4615;DHT22;2320;51.362;6.946;2023-04-01T01:31:37;10.20;99.90
4615;DHT22;2320;51.362;6.946;2023-04-01T01:36:55;10.20;99.90
4615;DHT22;2320;51.362;6.946;2023-04-01T01:39:25;10.20;99.90
4615;DHT22;2320;51.362;6.946;2023-04-01T01:41:53;10.20;99.90
4615;DHT22;2320;51.362;6.946;2023-04-01T01:44:21;10.10;99.90
4615;DHT22;2320;51.362;6.946;2023-04-01T01:46:46;10.20;99.90
4615;DHT22;2320;51.362;6.946;2023-04-01T01:49:12;10.20;99.90
4615;DHT22;2320;51.362;6.946;2023-04-01T01:51:39;10.20;99.90
4615;DHT22;2320;51.362;6.946;2023-04-01T01:54:05;10.20;99.90
4615;DHT22;2320;51.362;6.946;2023-04-01T01:56:30;10.20;99.90
4615;DHT22;2320;51.362;6.946;2023-04-01T01:59:02;10.20;99.90
4615;DHT22;2320;51.362;6.946;2023-04-01T02:01:29;10.20;99.90
4615;DHT22;2320;51.362;6.946;2023-04-01T02:03:56;10.20;99.90
4615;DHT22;2320;51.362;6.946;2023-04-01T02:06:23;10.30;99.90
4615;DHT22;2320;51.362;6.946;2023-04-01T02:08:51;10.20;99.90
4615;DHT22;2320;51.362;6.946;2023-04-01T02:11:18;10.30;99.90
4615;DHT22;2320;51.362;6.946;2023-04-01T02:13:47;10.30;99.90
4615;DHT22;2320;51.362;6.946;2023-04-01T02:16:20;10.30;99.90
4615;DHT22;2320;51.362;6.946;2023-04-01T02:18:47;10.20;99.90
4615;DHT22;2320;51.362;6.946;2023-04-01T02:21:14;10.20;99.90
4615;DHT22;2320;51.362;6.946;2023-04-01T02:23:40;10.10;99.90
4615;DHT22;2320;51.362;6.946;2023-04-01T02:26:06;10.10;99.90
4615;DHT22;2320;51.362;6.946;2023-04-01T02:28:32;10.20;99.90
4615;DHT22;2320;51.362;6.946;2023-04-01T02:30:58;10.20;99.90
4615;DHT22;2320;51.362;6.946;2023-04-01T02:33:25;10.20;99.90
4615;DHT22;2320;51.362;6.946;2023-04-01T02:35:52;10.20;99.90
4615;DHT22;2320;51.362;6.946;2023-04-01T02:38:17;10.20;99.90
4615;DHT22;2320;51.362;6.946;2023-04-01T02:40:47;10.20;99.90
4615;DHT22;2320;51.362;6.946;2023-04-01T02:43:13;10.10;99.90
4615;DHT22;2320;51.362;6.946;2023-04-01T02:45:39;10.10;99.90
4615;DHT22;2320;51.362;6.946;2023-04-01T02:48:04;10.10;99.90
4615;DHT22;2320;51.362;6.946;2023-04-01T02:50:30;10.10;99.90
4615;DHT22;2320;51.362;6.946;2023-04-01T02:52:56;10.10;99.90
4615;DHT22;2320;51.362;6.946;2023-04-01T02:55:21;10.10;99.90
4615;DHT22;2320;51.362;6.946;2023-04-01T02:57:46;10.10;99.90
4615;DHT22;2320;51.362;6.946;2023-04-01T03:00:12;10.00;99.90
4615;DHT22;2320;51.362;6.946;2023-04-01T03:02:38;10.10;99.90
4615;DHT22;2320;51.362;6.946;2023-04-01T03:05:04;10.10;99.90
4615;DHT22;2320;51.362;6.946;2023-04-01T03:07:30;10.00;99.90
4615;DHT22;2320;51.362;6.946;2023-04-01T03:09:56;10.00;99.90
4615;DHT22;2320;51.362;6.946;2023-04-01T03:12:21;10.00;99.90
4615;DHT22;2320;51.362;6.946;2023-04-01T03:14:47;10.10;99.90
4615;DHT22;2320;51.362;6.946;2023-04-01T03:17:12;10.00;99.90
4615;DHT22;2320;51.362;6.946;2023-04-01T03:19:38;10.00;99.90
4615;DHT22;2320;51.362;6.946;2023-04-01T03:22:03;10.00;99.90
4615;DHT22;2320;51.362;6.946;2023-04-01T03:24:29;9.90;99.90
4615;DHT22;2320;51.362;6.946;2023-04-01T03:26:54;9.90;99.90
4615;DHT22;2320;51.362;6.946;2023-04-01T03:29:20;10.00;99.90
4615;DHT22;2320;51.362;6.946;2023-04-01T03:31:45;10.00;99.90
4615;DHT22;2320;51.362;6.946;2023-04-01T03:34:11;10.00;99.90
4615;DHT22;2320;51.362;6.946;2023-04-01T03:36:36;10.00;99.90
4615;DHT22;2320;51.362;6.946;2023-04-01T03:39:02;10.00;99.90
4615;DHT22;2320;51.362;6.946;2023-04-01T03:41:29;10.00;99.90
4615;DHT22;2320;51.362;6.946;2023-04-01T03:43:55;10.00;99.90
4615;DHT22;2320;51.362;6.946;2023-04-01T03:46:21;10.00;99.90
4615;DHT22;2320;51.362;6.946;2023-04-01T03:48:46;10.00;99.90
4615;DHT22;2320;51.362;6.946;2023-04-01T03:51:12;10.00;99.90
4615;DHT22;2320;51.362;6.946;2023-04-01T03:53:37;10.10;99.90
4615;DHT22;2320;51.362;6.946;2023-04-01T03:56:04;10.10;99.90
4615;DHT22;2320;51.362;6.946;2023-04-01T03:58:30;10.10;99.90
4615;DHT22;2320;51.362;6.946;2023-04-01T04:00:55;10.00;99.90
4615;DHT22;2320;51.362;6.946;2023-04-01T04:03:20;10.10;99.90
4615;DHT22;2320;51.362;6.946;2023-04-01T04:05:47;10.00;99.90
4615;DHT22;2320;51.362;6.946;2023-04-01T04:08:13;10.00;99.90
4615;DHT22;2320;51.362;6.946;2023-04-01T04:10:38;10.10;99.90
4615;DHT22;2320;51.362;6.946;2023-04-01T04:13:05;10.10;99.90
4615;DHT22;2320;51.362;6.946;2023-04-01T04:15:30;10.20;99.90
4615;DHT22;2320;51.362;6.946;2023-04-01T04:17:55;10.20;99.90
4615;DHT22;2320;51.362;6.946;2023-04-01T04:20:21;10.20;99.90
4615;DHT22;2320;51.362;6.946;2023-04-01T04:22:46;10.10;99.90
4615;DHT22;2320;51.362;6.946;2023-04-01T04:25:12;10.10;99.90
4615;DHT22;2320;51.362;6.946;2023-04-01T04:27:37;10.20;99.90
4615;DHT22;2320;51.362;6.946;2023-04-01T04:30:03;10.20;99.90
4615;DHT22;2320;51.362;6.946;2023-04-01T04:32:30;10.20;99.90
4615;DHT22;2320;51.362;6.946;2023-04-01T04:34:56;10.20;99.90
4615;DHT22;2320;51.362;6.946;2023-04-01T04:37:21;10.20;99.90
4615;DHT22;2320;51.362;6.946;2023-04-01T04:39:46;10.20;99.90
4615;DHT22;2320;51.362;6.946;2023-04-01T04:42:12;10.20;99.90
4615;DHT22;2320;51.362;6.946;2023-04-01T04:44:38;10.20;99.90
4615;DHT22;2320;51.362;6.946;2023-04-01T04:47:04;10.20;99.90
4615;DHT22;2320;51.362;6.946;2023-04-01T04:49:29;10.10;99.90
4615;DHT22;2320;51.362;6.946;2023-04-01T04:51:55;10.10;99.90
4615;DHT22;2320;51.362;6.946;2023-04-01T04:54:20;10.20;99.90
4615;DHT22;2320;51.362;6.946;2023-04-01T04:56:46;10.20;99.90
4615;DHT22;2320;51.362;6.946;2023-04-01T04:59:11;10.20;99.90
4615;DHT22;2320;51.362;6.946;2023-04-01T05:01:37;10.20;99.90
4615;DHT22;2320;51.362;6.946;2023-04-01T05:04:03;10.20;99.90
4615;DHT22;2320;51.362;6.946;2023-04-01T05:06:28;10.30;99.90
4615;DHT22;2320;51.362;6.946;2023-04-01T05:08:57;10.20;99.90
4615;DHT22;2320;51.362;6.946;2023-04-01T05:11:22;10.30;99.90
4615;DHT22;2320;51.362;6.946;2023-04-01T05:13:48;10.20;99.90
4615;DHT22;2320;51.362;6.946;2023-04-01T05:16:14;10.20;99.90
4615;DHT22;2320;51.362;6.946;2023-04-01T05:18:40;10.20;99.90
4615;DHT22;2320;51.362;6.946;2023-04-01T05:21:07;10.20;99.90
4615;DHT22;2320;51.362;6.946;2023-04-01T05:23:33;10.20;99.90
4615;DHT22;2320;51.362;6.946;2023-04-01T05:25:58;10.30;99.90
4615;DHT22;2320;51.362;6.946;2023-04-01T05:28:27;10.30;99.90
4615;DHT22;2320;51.362;6.946;2023-04-01T05:30:52;10.30;99.90
4615;DHT22;2320;51.362;6.946;2023-04-01T05:33:18;10.30;99.90
4615;DHT22;2320;51.362;6.946;2023-04-01T05:35:43;10.30;99.90
4615;DHT22;2320;51.362;6.946;2023-04-01T05:38:09;10.30;99.90
4615;DHT22;2320;51.362;6.946;2023-04-01T05:40:34;10.30;99.90
4615;DHT22;2320;51.362;6.946;2023-04-01T05:43:00;10.30;99.90
4615;DHT22;2320;51.362;6.946;2023-04-01T05:45:26;10.20;99.90
4615;DHT22;2320;51.362;6.946;2023-04-01T05:47:51;10.30;99.90
4615;DHT22;2320;51.362;6.946;2023-04-01T05:50:17;10.30;99.90
4615;DHT22;2320;51.362;6.946;2023-04-01T05:52:42;10.30;99.90
4615;DHT22;2320;51.362;6.946;2023-04-01T05:55:08;10.30;99.90
4615;DHT22;2320;51.362;6.946;2023-04-01T05:57:33;10.40;99.90
4615;DHT22;2320;51.362;6.946;2023-04-01T05:59:59;10.40;99.90
4615;DHT22;2320;51.362;6.946;2023-04-01T06:02:24;10.40;99.90
4615;DHT22;2320;51.362;6.946;2023-04-01T06:04:50;10.40;99.90
4615;DHT22;2320;51.362;6.946;2023-04-01T06:07:19;10.40;99.90
4615;DHT22;2320;51.362;6.946;2023-04-01T06:09:45;10.40;99.90
4615;DHT22;2320;51.362;6.946;2023-04-01T06:17:23;10.30;99.90
4615;DHT22;2320;51.362;6.946;2023-04-01T06:25:07;10.40;99.90
4615;DHT22;2320;51.362;6.946;2023-04-01T06:28:00;10.40;99.90
4615;DHT22;2320;51.362;6.946;2023-04-01T06:30:33;10.50;99.90
4615;DHT22;2320;51.362;6.946;2023-04-01T06:40:47;10.50;99.90
4615;DHT22;2320;51.362;6.946;2023-04-01T06:43:37;10.60;99.90
4615;DHT22;2320;51.362;6.946;2023-04-01T06:49:02;10.60;99.90
4615;DHT22;2320;51.362;6.946;2023-04-01T06:51:47;10.70;99.90
4615;DHT22;2320;51.362;6.946;2023-04-01T06:54:18;10.70;99.90
4615;DHT22;2320;51.362;6.946;2023-04-01T06:56:45;10.60;99.90
4615;DHT22;2320;51.362;6.946;2023-04-01T06:59:13;10.60;99.90
4615;DHT22;2320;51.362;6.946;2023-04-01T07:01:41;10.60;99.90
4615;DHT22;2320;51.362;6.946;2023-04-01T07:04:15;10.60;99.90
4615;DHT22;2320;51.362;6.946;2023-04-01T07:06:52;10.60;99.90
4615;DHT22;2320;51.362;6.946;2023-04-01T07:09:19;10.60;99.90
4615;DHT22;2320;51.362;6.946;2023-04-01T07:11:47;10.70;99.90
4615;DHT22;2320;51.362;6.946;2023-04-01T07:14:29;10.70;99.90
4615;DHT22;2320;51.362;6.946;2023-04-01T07:21:52;10.80;99.90
4615;DHT22;2320;51.362;6.946;2023-04-01T07:24:27;10.70;99.90
4615;DHT22;2320;51.362;6.946;2023-04-01T07:26:55;10.70;99.90
4615;DHT22;2320;51.362;6.946;2023-04-01T07:29:21;10.80;99.90
4615;DHT22;2320;51.362;6.946;2023-04-01T07:31:54;10.80;99.90
4615;DHT22;2320;51.362;6.946;2023-04-01T07:36:59;10.90;99.90
4615;DHT22;2320;51.362;6.946;2023-04-01T07:42:24;10.90;99.90
4615;DHT22;2320;51.362;6.946;2023-04-01T07:44:55;11.00;99.90
4615;DHT22;2320;51.362;6.946;2023-04-01T07:47:31;10.90;99.90
4615;DHT22;2320;51.362;6.946;2023-04-01T07:55:20;11.00;99.90
4615;DHT22;2320;51.362;6.946;2023-04-01T07:58:32;10.90;99.90
4615;DHT22;2320;51.362;6.946;2023-04-01T08:03:27;10.90;99.90
4615;DHT22;2320;51.362;6.946;2023-04-01T08:05:57;10.80;99.90
4615;DHT22;2320;51.362;6.946;2023-04-01T08:11:21;10.90;99.90
4615;DHT22;2320;51.362;6.946;2023-04-01T08:16:34;10.90;99.90
4615;DHT22;2320;51.362;6.946;2023-04-01T08:19:15;10.90;99.90
4615;DHT22;2320;51.362;6.946;2023-04-01T08:21:45;10.90;99.90
4615;DHT22;2320;51.362;6.946;2023-04-01T08:24:32;10.90;99.90
4615;DHT22;2320;51.362;6.946;2023-04-01T08:26:58;11.00;99.90
4615;DHT22;2320;51.362;6.946;2023-04-01T08:29:48;11.00;99.90
4615;DHT22;2320;51.362;6.946;2023-04-01T08:32:11;11.10;99.90
4615;DHT22;2320;51.362;6.946;2023-04-01T08:34:39;11.00;99.90
4615;DHT22;2320;51.362;6.946;2023-04-01T08:37:15;11.00;99.90
4615;DHT22;2320;51.362;6.946;2023-04-01T08:39:47;11.00;99.90
4615;DHT22;2320;51.362;6.946;2023-04-01T09:03:30;10.90;99.90
4615;DHT22;2320;51.362;6.946;2023-04-01T09:06:10;11.10;99.90
4615;DHT22;2320;51.362;6.946;2023-04-01T09:16:54;11.20;99.90
4615;DHT22;2320;51.362;6.946;2023-04-01T09:19:27;11.20;99.90
4615;DHT22;2320;51.362;6.946;2023-04-01T09:29:34;11.20;99.90
4615;DHT22;2320;51.362;6.946;2023-04-01T09:32:10;11.20;99.90
4615;DHT22;2320;51.362;6.946;2023-04-01T09:40:14;11.20;99.90
4615;DHT22;2320;51.362;6.946;2023-04-01T09:45:19;11.30;99.90
4615;DHT22;2320;51.362;6.946;2023-04-01T10:00:39;11.60;99.90
4615;DHT22;2320;51.362;6.946;2023-04-01T10:03:19;11.60;99.90
4615;DHT22;2320;51.362;6.946;2023-04-01T10:05:54;11.70;99.90
4615;DHT22;2320;51.362;6.946;2023-04-01T10:16:40;11.90;99.90
4615;DHT22;2320;51.362;6.946;2023-04-01T10:20:18;11.90;99.90
4615;DHT22;2320;51.362;6.946;2023-04-01T10:27:21;11.70;99.90
4615;DHT22;2320;51.362;6.946;2023-04-01T10:38:14;11.60;99.90
4615;DHT22;2320;51.362;6.946;2023-04-01T10:46:52;11.70;99.90
4615;DHT22;2320;51.362;6.946;2023-04-01T10:54:34;11.70;99.90
4615;DHT22;2320;51.362;6.946;2023-04-01T10:57:53;11.70;99.90
4615;DHT22;2320;51.362;6.946;2023-04-01T10:59:53;11.80;99.90
4615;DHT22;2320;51.362;6.946;2023-04-01T11:05:18;11.80;99.90
4615;DHT22;2320;51.362;6.946;2023-04-01T11:08:07;11.90;99.90
4615;DHT22;2320;51.362;6.946;2023-04-01T11:13:26;11.80;99.90
4615;DHT22;2320;51.362;6.946;2023-04-01T11:16:02;11.80;99.90
4615;DHT22;2320;51.362;6.946;2023-04-01T11:24:01;11.80;99.90
4615;DHT22;2320;51.362;6.946;2023-04-01T11:26:43;11.80;99.90
4615;DHT22;2320;51.362;6.946;2023-04-01T11:31:50;11.70;99.90
4615;DHT22;2320;51.362;6.946;2023-04-01T11:39:33;11.60;99.90
4615;DHT22;2320;51.362;6.946;2023-04-01T11:44:33;11.60;99.90
4615;DHT22;2320;51.362;6.946;2023-04-01T11:47:07;11.60;99.90
4615;DHT22;2320;51.362;6.946;2023-04-01T11:55:43;11.80;99.90
4615;DHT22;2320;51.362;6.946;2023-04-01T12:00:25;11.80;99.90
4615;DHT22;2320;51.362;6.946;2023-04-01T12:16:19;12.00;99.90
4615;DHT22;2320;51.362;6.946;2023-04-01T12:19:04;12.00;99.90
4615;DHT22;2320;51.362;6.946;2023-04-01T12:21:37;12.00;99.90
4615;DHT22;2320;51.362;6.946;2023-04-01T12:37:12;11.90;99.90
4615;DHT22;2320;51.362;6.946;2023-04-01T12:42:44;12.00;99.90
4615;DHT22;2320;51.362;6.946;2023-04-01T12:50:29;11.90;99.90
4615;DHT22;2320;51.362;6.946;2023-04-01T12:58:03;11.90;99.90
4615;DHT22;2320;51.362;6.946;2023-04-01T13:08:19;12.40;99.90
4615;DHT22;2320;51.362;6.946;2023-04-01T13:10:58;12.30;99.90
4615;DHT22;2320;51.362;6.946;2023-04-01T13:16:11;12.00;99.90
4615;DHT22;2320;51.362;6.946;2023-04-01T13:24:13;12.00;99.90
4615;DHT22;2320;51.362;6.946;2023-04-01T13:26:47;12.10;99.90
4615;DHT22;2320;51.362;6.946;2023-04-01T13:29:18;12.00;99.90
4615;DHT22;2320;51.362;6.946;2023-04-01T13:41:54;11.90;99.90
4615;DHT22;2320;51.362;6.946;2023-04-01T13:50:05;11.90;99.90
4615;DHT22;2320;51.362;6.946;2023-04-01T13:55:23;11.90;99.90
4615;DHT22;2320;51.362;6.946;2023-04-01T14:00:25;11.90;99.90
4615;DHT22;2320;51.362;6.946;2023-04-01T14:10:40;11.90;99.90
4615;DHT22;2320;51.362;6.946;2023-04-01T14:13:18;11.90;99.90
4615;DHT22;2320;51.362;6.946;2023-04-01T14:15:58;11.90;99.90
4615;DHT22;2320;51.362;6.946;2023-04-01T14:18:33;12.00;99.90
4615;DHT22;2320;51.362;6.946;2023-04-01T14:23:49;11.90;99.90
4615;DHT22;2320;51.362;6.946;2023-04-01T14:28:54;11.80;99.90
4615;DHT22;2320;51.362;6.946;2023-04-01T14:36:29;11.70;99.90
4615;DHT22;2320;51.362;6.946;2023-04-01T14:39:07;11.70;99.90
4615;DHT22;2320;51.362;6.946;2023-04-01T14:44:37;11.70;99.90
4615;DHT22;2320;51.362;6.946;2023-04-01T14:47:11;11.80;99.90
4615;DHT22;2320;51.362;6.946;2023-04-01T14:49:46;11.70;99.90
4615;DHT22;2320;51.362;6.946;2023-04-01T14:52:17;11.70;99.90
4615;DHT22;2320;51.362;6.946;2023-04-01T14:54:48;11.80;99.90
4615;DHT22;2320;51.362;6.946;2023-04-01T14:57:15;11.60;99.90
4615;DHT22;2320;51.362;6.946;2023-04-01T14:59:48;11.70;99.90
4615;DHT22;2320;51.362;6.946;2023-04-01T15:02:28;11.60;99.90
4615;DHT22;2320;51.362;6.946;2023-04-01T15:04:59;11.60;99.90
4615;DHT22;2320;51.362;6.946;2023-04-01T15:07:49;11.50;99.90
4615;DHT22;2320;51.362;6.946;2023-04-01T15:18:08;11.70;99.90
4615;DHT22;2320;51.362;6.946;2023-04-01T15:25:51;11.70;99.90
4615;DHT22;2320;51.362;6.946;2023-04-01T15:28:27;11.70;99.90
4615;DHT22;2320;51.362;6.946;2023-04-01T15:39:05;11.70;99.90
4615;DHT22;2320;51.362;6.946;2023-04-01T15:47:07;11.70;99.90
4615;DHT22;2320;51.362;6.946;2023-04-01T15:49:50;11.60;99.90
4615;DHT22;2320;51.362;6.946;2023-04-01T15:52:24;11.70;99.90
4615;DHT22;2320;51.362;6.946;2023-04-01T15:55:13;11.60;99.90
4615;DHT22;2320;51.362;6.946;2023-04-01T15:57:54;11.70;99.90
4615;DHT22;2320;51.362;6.946;2023-04-01T16:00:28;11.50;99.90
4615;DHT22;2320;51.362;6.946;2023-04-01T16:05:51;11.50;99.90
4615;DHT22;2320;51.362;6.946;2023-04-01T16:10:59;11.40;99.90
4615;DHT22;2320;51.362;6.946;2023-04-01T16:21:27;11.40;99.90
4615;DHT22;2320;51.362;6.946;2023-04-01T16:24:17;11.30;99.90
4615;DHT22;2320;51.362;6.946;2023-04-01T16:26:48;11.30;99.90
4615;DHT22;2320;51.362;6.946;2023-04-01T16:32:02;11.40;99.90
4615;DHT22;2320;51.362;6.946;2023-04-01T16:34:38;11.50;99.90
4615;DHT22;2320;51.362;6.946;2023-04-01T16:37:09;11.50;99.90
4615;DHT22;2320;51.362;6.946;2023-04-01T16:44:57;11.70;99.90
4615;DHT22;2320;51.362;6.946;2023-04-01T16:47:30;11.60;99.90
4615;DHT22;2320;51.362;6.946;2023-04-01T16:50:05;11.60;99.90
4615;DHT22;2320;51.362;6.946;2023-04-01T16:55:17;11.60;99.90
4615;DHT22;2320;51.362;6.946;2023-04-01T17:02:43;11.70;99.90
4615;DHT22;2320;51.362;6.946;2023-04-01T17:05:11;11.70;99.90
4615;DHT22;2320;51.362;6.946;2023-04-01T17:12:53;11.70;99.90
4615;DHT22;2320;51.362;6.946;2023-04-01T17:15:26;11.70;99.90
4615;DHT22;2320;51.362;6.946;2023-04-01T17:28:32;11.60;99.90
4615;DHT22;2320;51.362;6.946;2023-04-01T17:33:40;11.60;99.90
4615;DHT22;2320;51.362;6.946;2023-04-01T17:36:09;11.60;99.90
4615;DHT22;2320;51.362;6.946;2023-04-01T17:41:28;11.60;99.90
4615;DHT22;2320;51.362;6.946;2023-04-01T17:44:10;11.60;99.90
4615;DHT22;2320;51.362;6.946;2023-04-01T17:46:47;11.60;99.90
4615;DHT22;2320;51.362;6.946;2023-04-01T17:52:21;11.50;99.90
4615;DHT22;2320;51.362;6.946;2023-04-01T17:54:46;11.50;99.90
4615;DHT22;2320;51.362;6.946;2023-04-01T17:57:23;11.50;99.90
4615;DHT22;2320;51.362;6.946;2023-04-01T18:00:01;11.40;99.90
4615;DHT22;2320;51.362;6.946;2023-04-01T18:02:31;11.50;99.90
4615;DHT22;2320;51.362;6.946;2023-04-01T18:05:16;11.40;99.90
4615;DHT22;2320;51.362;6.946;2023-04-01T18:21:04;11.40;99.90
4615;DHT22;2320;51.362;6.946;2023-04-01T18:23:51;11.40;99.90
4615;DHT22;2320;51.362;6.946;2023-04-01T18:26:37;11.30;99.90
4615;DHT22;2320;51.362;6.946;2023-04-01T18:34:41;11.40;99.90
4615;DHT22;2320;51.362;6.946;2023-04-01T18:39:40;11.40;99.90
4615;DHT22;2320;51.362;6.946;2023-04-01T18:42:08;11.30;99.90
4615;DHT22;2320;51.362;6.946;2023-04-01T18:44:45;11.40;99.90
4615;DHT22;2320;51.362;6.946;2023-04-01T18:49:59;11.30;99.90
4615;DHT22;2320;51.362;6.946;2023-04-01T18:52:33;11.20;99.90
4615;DHT22;2320;51.362;6.946;2023-04-01T18:57:25;11.30;99.90
4615;DHT22;2320;51.362;6.946;2023-04-01T18:59:55;11.30;99.90
4615;DHT22;2320;51.362;6.946;2023-04-01T19:02:27;11.40;99.90
4615;DHT22;2320;51.362;6.946;2023-04-01T19:05:01;11.30;99.90
4615;DHT22;2320;51.362;6.946;2023-04-01T19:10:12;11.30;99.90
4615;DHT22;2320;51.362;6.946;2023-04-01T19:12:44;11.30;99.90
4615;DHT22;2320;51.362;6.946;2023-04-01T19:20:37;11.30;99.90
4615;DHT22;2320;51.362;6.946;2023-04-01T19:25:51;11.20;99.90
4615;DHT22;2320;51.362;6.946;2023-04-01T19:33:48;11.30;99.90
4615;DHT22;2320;51.362;6.946;2023-04-01T19:36:26;11.30;99.90
4615;DHT22;2320;51.362;6.946;2023-04-01T19:41:46;11.30;99.90
4615;DHT22;2320;51.362;6.946;2023-04-01T19:46:53;11.20;99.90
4615;DHT22;2320;51.362;6.946;2023-04-01T19:54:51;11.10;99.90
4615;DHT22;2320;51.362;6.946;2023-04-01T19:59:50;10.90;99.90
4615;DHT22;2320;51.362;6.946;2023-04-01T20:04:44;10.90;99.90
4615;DHT22;2320;51.362;6.946;2023-04-01T20:09:46;10.90;99.90
4615;DHT22;2320;51.362;6.946;2023-04-01T20:14:55;10.90;99.90
4615;DHT22;2320;51.362;6.946;2023-04-01T20:17:31;10.80;99.90
4615;DHT22;2320;51.362;6.946;2023-04-01T20:19:59;10.80;99.90
4615;DHT22;2320;51.362;6.946;2023-04-01T20:22:28;10.80;99.90
4615;DHT22;2320;51.362;6.946;2023-04-01T20:24:57;10.70;99.90
4615;DHT22;2320;51.362;6.946;2023-04-01T20:27:25;10.70;99.90
4615;DHT22;2320;51.362;6.946;2023-04-01T20:32:33;10.50;99.90
4615;DHT22;2320;51.362;6.946;2023-04-01T20:40:14;10.50;99.90
4615;DHT22;2320;51.362;6.946;2023-04-01T20:42:49;10.50;99.90
4615;DHT22;2320;51.362;6.946;2023-04-01T20:45:37;10.40;99.90
4615;DHT22;2320;51.362;6.946;2023-04-01T20:50:34;10.20;99.90
4615;DHT22;2320;51.362;6.946;2023-04-01T20:53:04;10.30;99.90
4615;DHT22;2320;51.362;6.946;2023-04-01T21:00:42;10.10;99.90
4615;DHT22;2320;51.362;6.946;2023-04-01T21:05:56;9.90;99.90
4615;DHT22;2320;51.362;6.946;2023-04-01T21:10:56;10.00;99.90
4615;DHT22;2320;51.362;6.946;2023-04-01T21:15:55;10.00;99.90
4615;DHT22;2320;51.362;6.946;2023-04-01T21:18:35;9.90;99.90
4615;DHT22;2320;51.362;6.946;2023-04-01T21:23:45;9.90;99.90
4615;DHT22;2320;51.362;6.946;2023-04-01T21:26:23;9.90;99.90
4615;DHT22;2320;51.362;6.946;2023-04-01T21:31:26;9.90;99.90
4615;DHT22;2320;51.362;6.946;2023-04-01T21:33:59;9.80;99.90
4615;DHT22;2320;51.362;6.946;2023-04-01T21:39:08;9.60;99.90
4615;DHT22;2320;51.362;6.946;2023-04-01T21:47:17;9.50;99.90
4615;DHT22;2320;51.362;6.946;2023-04-01T21:52:32;9.50;99.90
4615;DHT22;2320;51.362;6.946;2023-04-01T21:58:05;9.50;99.90
4615;DHT22;2320;51.362;6.946;2023-04-01T22:00:33;9.40;99.90
4615;DHT22;2320;51.362;6.946;2023-04-01T22:08:30;9.20;99.90
4615;DHT22;2320;51.362;6.946;2023-04-01T22:11:09;9.10;99.90
4615;DHT22;2320;51.362;6.946;2023-04-01T22:13:48;9.00;99.90
4615;DHT22;2320;51.362;6.946;2023-04-01T22:16:31;9.10;99.90
4615;DHT22;2320;51.362;6.946;2023-04-01T22:27:11;8.70;99.90
4615;DHT22;2320;51.362;6.946;2023-04-01T22:29:43;8.70;99.90
4615;DHT22;2320;51.362;6.946;2023-04-01T22:32:15;8.70;99.90
4615;DHT22;2320;51.362;6.946;2023-04-01T22:34:44;8.70;99.90
4615;DHT22;2320;51.362;6.946;2023-04-01T22:37:19;8.70;99.90
4615;DHT22;2320;51.362;6.946;2023-04-01T22:42:25;8.70;99.90
4615;DHT22;2320;51.362;6.946;2023-04-01T22:44:56;8.50;99.90
4615;DHT22;2320;51.362;6.946;2023-04-01T22:47:37;8.50;99.90
4615;DHT22;2320;51.362;6.946;2023-04-01T22:50:10;8.50;99.90
4615;DHT22;2320;51.362;6.946;2023-04-01T22:52:41;8.60;99.90
4615;DHT22;2320;51.362;6.946;2023-04-01T22:55:13;8.50;99.90
4615;DHT22;2320;51.362;6.946;2023-04-01T23:00:13;8.30;99.90
4615;DHT22;2320;51.362;6.946;2023-04-01T23:02:42;8.20;99.90
4615;DHT22;2320;51.362;6.946;2023-04-01T23:05:12;8.10;99.90
4615;DHT22;2320;51.362;6.946;2023-04-01T23:07:45;8.00;99.90
4615;DHT22;2320;51.362;6.946;2023-04-01T23:10:39;8.00;99.90
4615;DHT22;2320;51.362;6.946;2023-04-01T23:13:00;8.10;99.90
4615;DHT22;2320;51.362;6.946;2023-04-01T23:15:27;8.20;99.90
4615;DHT22;2320;51.362;6.946;2023-04-01T23:23:15;8.00;99.90
4615;DHT22;2320;51.362;6.946;2023-04-01T23:25:56;7.90;99.90
4615;DHT22;2320;51.362;6.946;2023-04-01T23:30:50;8.00;99.90
4615;DHT22;2320;51.362;6.946;2023-04-01T23:38:20;8.00;99.90
4615;DHT22;2320;51.362;6.946;2023-04-01T23:40:50;7.90;99.90
4615;DHT22;2320;51.362;6.946;2023-04-01T23:43:24;7.90;99.90
4615;DHT22;2320;51.362;6.946;2023-04-01T23:45:50;7.80;99.90
4615;DHT22;2320;51.362;6.946;2023-04-01T23:48:15;7.90;99.90
4615;DHT22;2320;51.362;6.946;2023-04-01T23:50:41;7.90;99.90
4615;DHT22;2320;51.362;6.946;2023-04-01T23:53:17;7.80;99.90
4615;DHT22;2320;51.362;6.946;2023-04-01T23:55:43;7.70;99.90
